sensor_id;sensor_type;location;lat;lon;timestamp;pressure;altitude;pressure_sealevel;temperature
73662;BMP280;61956;52.540;13.382;2023-03-21T00:02:15;92853.50;;;9.78
73662;BMP280;61956;52.540;13.382;2023-03-21T00:04:45;92832.22;;;9.74
73662;BMP280;61956;52.540;13.382;2023-03-21T00:07:14;92745.94;;;9.71
73662;BMP280;61956;52.540;13.382;2023-03-21T00:09:44;92728.28;;;9.69
73662;BMP280;61956;52.540;13.382;2023-03-21T00:12:13;92667.13;;;9.66
73662;BMP280;61956;52.540;13.382;2023-03-21T00:14:48;92630.22;;;9.66
73662;BMP280;61956;52.540;13.382;2023-03-21T00:17:18;92434.06;;;9.62
73662;BMP280;61956;52.540;13.382;2023-03-21T00:19:49;92696.34;;;9.63
73662;BMP280;61956;52.540;13.382;2023-03-21T00:22:21;93468.66;;;9.67
73662;BMP280;61956;52.540;13.382;2023-03-21T00:24:50;94047.41;;;9.70
73662;BMP280;61956;52.540;13.382;2023-03-21T00:27:19;93556.09;;;9.68
73662;BMP280;61956;52.540;13.382;2023-03-21T00:29:51;93549.47;;;9.67
73662;BMP280;61956;52.540;13.382;2023-03-21T00:32:21;93867.28;;;9.67
73662;BMP280;61956;52.540;13.382;2023-03-21T00:34:51;93731.47;;;9.66
73662;BMP280;61956;52.540;13.382;2023-03-21T00:37:21;93471.31;;;9.63
73662;BMP280;61956;52.540;13.382;2023-03-21T00:39:50;93435.13;;;9.63
73662;BMP280;61956;52.540;13.382;2023-03-21T00:42:19;93699.41;;;9.64
73662;BMP280;61956;52.540;13.382;2023-03-21T00:44:51;94353.13;;;9.67
73662;BMP280;61956;52.540;13.382;2023-03-21T00:47:20;94107.25;;;9.65
73662;BMP280;61956;52.540;13.382;2023-03-21T00:49:49;94030.88;;;9.64
73662;BMP280;61956;52.540;13.382;2023-03-21T00:52:18;94164.09;;;9.65
73662;BMP280;61956;52.540;13.382;2023-03-21T00:54:48;94349.09;;;9.66
73662;BMP280;61956;52.540;13.382;2023-03-21T00:57:17;94252.72;;;9.66
73662;BMP280;61956;52.540;13.382;2023-03-21T00:59:46;94281.56;;;9.64
73662;BMP280;61956;52.540;13.382;2023-03-21T01:02:19;94261.59;;;9.65
73662;BMP280;61956;52.540;13.382;2023-03-21T01:04:51;94441.38;;;9.66
73662;BMP280;61956;52.540;13.382;2023-03-21T01:07:22;94139.78;;;9.63
73662;BMP280;61956;52.540;13.382;2023-03-21T01:09:51;93719.03;;;9.58
73662;BMP280;61956;52.540;13.382;2023-03-21T01:12:20;94280.44;;;9.62
73662;BMP280;61956;52.540;13.382;2023-03-21T01:14:49;93669.22;;;9.57
73662;BMP280;61956;52.540;13.382;2023-03-21T01:17:21;93305.81;;;9.54
73662;BMP280;61956;52.540;13.382;2023-03-21T01:19:50;93178.19;;;9.52
73662;BMP280;61956;52.540;13.382;2023-03-21T01:22:20;92667.34;;;9.46
73662;BMP280;61956;52.540;13.382;2023-03-21T01:24:49;92010.00;;;9.40
73662;BMP280;61956;52.540;13.382;2023-03-21T01:27:18;92511.13;;;9.42
73662;BMP280;61956;52.540;13.382;2023-03-21T01:29:48;92587.84;;;9.41
73662;BMP280;61956;52.540;13.382;2023-03-21T01:32:17;92252.34;;;9.38
73662;BMP280;61956;52.540;13.382;2023-03-21T01:34:49;92083.59;;;9.35
73662;BMP280;61956;52.540;13.382;2023-03-21T01:37:20;93134.94;;;9.39
73662;BMP280;61956;52.540;13.382;2023-03-21T01:39:51;92938.69;;;9.39
73662;BMP280;61956;52.540;13.382;2023-03-21T01:42:21;93051.53;;;9.39
73662;BMP280;61956;52.540;13.382;2023-03-21T01:44:56;93233.78;;;9.40
73662;BMP280;61956;52.540;13.382;2023-03-21T01:47:37;93544.00;;;9.42
73662;BMP280;61956;52.540;13.382;2023-03-21T01:50:25;93231.19;;;9.40
73662;BMP280;61956;52.540;13.382;2023-03-21T01:53:02;93287.28;;;9.39
73662;BMP280;61956;52.540;13.382;2023-03-21T01:55:33;93285.81;;;9.38
73662;BMP280;61956;52.540;13.382;2023-03-21T01:58:10;93198.44;;;9.37
73662;BMP280;61956;52.540;13.382;2023-03-21T02:00:58;92729.34;;;9.34
73662;BMP280;61956;52.540;13.382;2023-03-21T02:03:41;92826.00;;;9.33
73662;BMP280;61956;52.540;13.382;2023-03-21T02:06:43;93116.59;;;9.34
73662;BMP280;61956;52.540;13.382;2023-03-21T02:09:38;93079.00;;;9.33
73662;BMP280;61956;52.540;13.382;2023-03-21T02:12:15;92839.31;;;9.31
73662;BMP280;61956;52.540;13.382;2023-03-21T02:14:47;92538.09;;;9.28
73662;BMP280;61956;52.540;13.382;2023-03-21T02:17:49;93069.06;;;9.31
73662;BMP280;61956;52.540;13.382;2023-03-21T02:20:59;92433.13;;;9.25
73662;BMP280;61956;52.540;13.382;2023-03-21T02:24:23;92235.97;;;9.22
73662;BMP280;61956;52.540;13.382;2023-03-21T02:27:14;92261.47;;;9.20
73662;BMP280;61956;52.540;13.382;2023-03-21T02:30:16;92178.91;;;9.20
73662;BMP280;61956;52.540;13.382;2023-03-21T02:39:55;91317.66;;;9.10
73662;BMP280;61956;52.540;13.382;2023-03-21T02:42:47;91123.28;;;9.07
73662;BMP280;61956;52.540;13.382;2023-03-21T02:45:25;91449.66;;;9.08
73662;BMP280;61956;52.540;13.382;2023-03-21T02:48:02;91734.13;;;9.09
73662;BMP280;61956;52.540;13.382;2023-03-21T02:50:41;91530.78;;;9.07
73662;BMP280;61956;52.540;13.382;2023-03-21T02:53:22;91328.34;;;9.03
73662;BMP280;61956;52.540;13.382;2023-03-21T02:55:55;90797.28;;;8.99
73662;BMP280;61956;52.540;13.382;2023-03-21T02:58:28;91110.75;;;9.00
73662;BMP280;61956;52.540;13.382;2023-03-21T03:01:00;91362.03;;;8.99
73662;BMP280;61956;52.540;13.382;2023-03-21T03:03:35;91172.38;;;8.98
73662;BMP280;61956;52.540;13.382;2023-03-21T03:06:12;91995.66;;;9.02
73662;BMP280;61956;52.540;13.382;2023-03-21T03:09:10;92063.47;;;9.03
73662;BMP280;61956;52.540;13.382;2023-03-21T03:12:00;91445.75;;;8.98
73662;BMP280;61956;52.540;13.382;2023-03-21T03:14:48;91418.53;;;8.97
73662;BMP280;61956;52.540;13.382;2023-03-21T03:17:36;90953.84;;;8.93
73662;BMP280;61956;52.540;13.382;2023-03-21T03:20:24;91376.28;;;8.94
73662;BMP280;61956;52.540;13.382;2023-03-21T03:23:04;91987.09;;;8.96
73662;BMP280;61956;52.540;13.382;2023-03-21T03:25:48;91789.66;;;8.95
73662;BMP280;61956;52.540;13.382;2023-03-21T03:28:25;90668.81;;;8.86
73662;BMP280;61956;52.540;13.382;2023-03-21T03:30:58;91070.53;;;8.88
73662;BMP280;61956;52.540;13.382;2023-03-21T03:33:32;91016.41;;;8.88
73662;BMP280;61956;52.540;13.382;2023-03-21T03:36:04;91270.91;;;8.87
73662;BMP280;61956;52.540;13.382;2023-03-21T03:38:39;90879.50;;;8.86
73662;BMP280;61956;52.540;13.382;2023-03-21T03:41:18;91341.69;;;8.86
73662;BMP280;61956;52.540;13.382;2023-03-21T03:43:58;91462.44;;;8.88
73662;BMP280;61956;52.540;13.382;2023-03-21T03:46:38;90993.38;;;8.84
73662;BMP280;61956;52.540;13.382;2023-03-21T03:49:14;90795.78;;;8.81
73662;BMP280;61956;52.540;13.382;2023-03-21T03:51:50;90318.47;;;8.77
73662;BMP280;61956;52.540;13.382;2023-03-21T03:54:33;89683.94;;;8.71
73662;BMP280;61956;52.540;13.382;2023-03-21T03:57:10;89844.84;;;8.70
73662;BMP280;61956;52.540;13.382;2023-03-21T03:59:42;90188.25;;;8.70
73662;BMP280;61956;52.540;13.382;2023-03-21T04:02:25;90181.66;;;8.69
73662;BMP280;61956;52.540;13.382;2023-03-21T04:04:55;90905.63;;;8.73
73662;BMP280;61956;52.540;13.382;2023-03-21T04:07:24;91030.06;;;8.73
73662;BMP280;61956;52.540;13.382;2023-03-21T04:09:57;91291.38;;;8.76
73662;BMP280;61956;52.540;13.382;2023-03-21T04:12:29;92187.34;;;8.81
73662;BMP280;61956;52.540;13.382;2023-03-21T04:15:17;91090.75;;;8.74
73662;BMP280;61956;52.540;13.382;2023-03-21T04:17:56;91262.03;;;8.73
73662;BMP280;61956;52.540;13.382;2023-03-21T04:20:25;91640.13;;;8.76
73662;BMP280;61956;52.540;13.382;2023-03-21T04:22:55;92023.44;;;8.80
73662;BMP280;61956;52.540;13.382;2023-03-21T04:25:24;91365.16;;;8.73
73662;BMP280;61956;52.540;13.382;2023-03-21T04:28:00;91499.91;;;8.74
73662;BMP280;61956;52.540;13.382;2023-03-21T04:30:49;91260.59;;;8.72
73662;BMP280;61956;52.540;13.382;2023-03-21T04:33:22;91328.34;;;8.73
73662;BMP280;61956;52.540;13.382;2023-03-21T04:35:55;90823.09;;;8.67
73662;BMP280;61956;52.540;13.382;2023-03-21T04:38:27;91341.69;;;8.71
73662;BMP280;61956;52.540;13.382;2023-03-21T04:41:02;91121.63;;;8.69
73662;BMP280;61956;52.540;13.382;2023-03-21T04:43:34;91494.94;;;8.70
73662;BMP280;61956;52.540;13.382;2023-03-21T04:46:03;90780.91;;;8.65
73662;BMP280;61956;52.540;13.382;2023-03-21T04:48:33;91451.56;;;8.69
73662;BMP280;61956;52.540;13.382;2023-03-21T04:51:02;91803.13;;;8.71
73662;BMP280;61956;52.540;13.382;2023-03-21T04:53:33;92017.13;;;8.71
73662;BMP280;61956;52.540;13.382;2023-03-21T04:56:04;91918.44;;;8.71
73662;BMP280;61956;52.540;13.382;2023-03-21T04:58:36;91710.75;;;8.70
73662;BMP280;61956;52.540;13.382;2023-03-21T05:01:06;91584.16;;;8.68
73662;BMP280;61956;52.540;13.382;2023-03-21T05:03:39;91547.34;;;8.67
73662;BMP280;61956;52.540;13.382;2023-03-21T05:06:09;91385.41;;;8.66
73662;BMP280;61956;52.540;13.382;2023-03-21T05:08:38;91244.78;;;8.65
73662;BMP280;61956;52.540;13.382;2023-03-21T05:11:11;90996.41;;;8.62
73662;BMP280;61956;52.540;13.382;2023-03-21T05:13:43;90946.03;;;8.61
73662;BMP280;61956;52.540;13.382;2023-03-21T05:16:12;91078.59;;;8.60
73662;BMP280;61956;52.540;13.382;2023-03-21T05:18:43;91097.38;;;8.61
73662;BMP280;61956;52.540;13.382;2023-03-21T05:21:18;91998.22;;;8.65
73662;BMP280;61956;52.540;13.382;2023-03-21T05:23:48;92217.66;;;8.67
73662;BMP280;61956;52.540;13.382;2023-03-21T05:26:20;91292.78;;;8.62
73662;BMP280;61956;52.540;13.382;2023-03-21T05:29:09;91651.75;;;8.63
73662;BMP280;61956;52.540;13.382;2023-03-21T05:31:39;91270.03;;;8.61
73662;BMP280;61956;52.540;13.382;2023-03-21T05:34:13;90946.97;;;8.58
73662;BMP280;61956;52.540;13.382;2023-03-21T05:36:43;90900.31;;;8.56
73662;BMP280;61956;52.540;13.382;2023-03-21T05:39:12;91323.22;;;8.58
73662;BMP280;61956;52.540;13.382;2023-03-21T05:41:50;91521.19;;;8.60
73662;BMP280;61956;52.540;13.382;2023-03-21T05:44:22;92207.47;;;8.64
73662;BMP280;61956;52.540;13.382;2023-03-21T05:46:51;92839.13;;;8.67
73662;BMP280;61956;52.540;13.382;2023-03-21T05:49:26;92751.44;;;8.67
73662;BMP280;61956;52.540;13.382;2023-03-21T05:51:58;93193.13;;;8.71
73662;BMP280;61956;52.540;13.382;2023-03-21T05:54:28;93814.44;;;8.76
73662;BMP280;61956;52.540;13.382;2023-03-21T05:56:57;93642.69;;;8.75
73662;BMP280;61956;52.540;13.382;2023-03-21T05:59:49;93915.41;;;8.79
73662;BMP280;61956;52.540;13.382;2023-03-21T06:02:19;94521.50;;;8.84
73662;BMP280;61956;52.540;13.382;2023-03-21T06:04:52;94362.19;;;8.84
73662;BMP280;61956;52.540;13.382;2023-03-21T06:07:22;94283.31;;;8.83
73662;BMP280;61956;52.540;13.382;2023-03-21T06:09:51;93901.00;;;8.81
73662;BMP280;61956;52.540;13.382;2023-03-21T06:12:20;94044.38;;;8.82
73662;BMP280;61956;52.540;13.382;2023-03-21T06:15:30;93518.75;;;8.79
73662;BMP280;61956;52.540;13.382;2023-03-21T06:18:06;93840.91;;;8.81
73662;BMP280;61956;52.540;13.382;2023-03-21T06:20:39;94994.69;;;8.88
73662;BMP280;61956;52.540;13.382;2023-03-21T06:23:11;95411.88;;;8.92
73662;BMP280;61956;52.540;13.382;2023-03-21T06:25:40;94438.16;;;8.87
73662;BMP280;61956;52.540;13.382;2023-03-21T06:28:09;95010.50;;;8.90
73662;BMP280;61956;52.540;13.382;2023-03-21T06:30:43;94301.38;;;8.87
73662;BMP280;61956;52.540;13.382;2023-03-21T06:33:21;93677.22;;;8.82
73662;BMP280;61956;52.540;13.382;2023-03-21T06:35:51;94620.34;;;8.88
73662;BMP280;61956;52.540;13.382;2023-03-21T06:38:22;94440.75;;;8.87
73662;BMP280;61956;52.540;13.382;2023-03-21T06:40:52;95027.50;;;8.91
73662;BMP280;61956;52.540;13.382;2023-03-21T06:43:24;95967.66;;;8.98
73662;BMP280;61956;52.540;13.382;2023-03-21T06:45:56;96145.97;;;9.02
73662;BMP280;61956;52.540;13.382;2023-03-21T06:48:26;96582.72;;;9.05
73662;BMP280;61956;52.540;13.382;2023-03-21T06:50:57;97179.50;;;9.10
73662;BMP280;61956;52.540;13.382;2023-03-21T06:53:28;98072.53;;;9.18
73662;BMP280;61956;52.540;13.382;2023-03-21T06:56:24;96837.00;;;9.13
73662;BMP280;61956;52.540;13.382;2023-03-21T06:58:53;97057.88;;;9.15
73662;BMP280;61956;52.540;13.382;2023-03-21T07:01:45;96887.31;;;9.15
73662;BMP280;61956;52.540;13.382;2023-03-21T07:04:15;97295.06;;;9.18
73662;BMP280;61956;52.540;13.382;2023-03-21T07:06:44;97052.09;;;9.18
73662;BMP280;61956;52.540;13.382;2023-03-21T07:09:14;96991.16;;;9.17
73662;BMP280;61956;52.540;13.382;2023-03-21T07:11:46;96849.00;;;9.17
73662;BMP280;61956;52.540;13.382;2023-03-21T07:14:19;97278.97;;;9.21
73662;BMP280;61956;52.540;13.382;2023-03-21T07:16:51;96710.19;;;9.18
73662;BMP280;61956;52.540;13.382;2023-03-21T07:19:21;96603.78;;;9.16
73662;BMP280;61956;52.540;13.382;2023-03-21T07:21:51;96326.50;;;9.15
73662;BMP280;61956;52.540;13.382;2023-03-21T07:24:20;96660.31;;;9.17
73662;BMP280;61956;52.540;13.382;2023-03-21T07:26:49;96940.22;;;9.18
73662;BMP280;61956;52.540;13.382;2023-03-21T07:29:18;96275.56;;;9.16
73662;BMP280;61956;52.540;13.382;2023-03-21T07:31:51;95761.31;;;9.12
73662;BMP280;61956;52.540;13.382;2023-03-21T07:34:21;96212.06;;;9.15
73662;BMP280;61956;52.540;13.382;2023-03-21T07:36:52;96169.94;;;9.14
73662;BMP280;61956;52.540;13.382;2023-03-21T07:39:21;96814.28;;;9.18
73662;BMP280;61956;52.540;13.382;2023-03-21T07:41:51;97662.56;;;9.26
73662;BMP280;61956;52.540;13.382;2023-03-21T07:44:29;97960.88;;;9.30
73662;BMP280;61956;52.540;13.382;2023-03-21T07:47:05;97691.47;;;9.28
73662;BMP280;61956;52.540;13.382;2023-03-21T07:49:35;97149.13;;;9.25
73662;BMP280;61956;52.540;13.382;2023-03-21T07:52:06;97397.75;;;9.27
73662;BMP280;61956;52.540;13.382;2023-03-21T07:54:37;97411.47;;;9.27
73662;BMP280;61956;52.540;13.382;2023-03-21T07:57:07;97498.28;;;9.28
73662;BMP280;61956;52.540;13.382;2023-03-21T07:59:36;99029.16;;;9.40
73662;BMP280;61956;52.540;13.382;2023-03-21T08:02:09;98236.50;;;9.36
73662;BMP280;61956;52.540;13.382;2023-03-21T08:04:41;97866.94;;;9.34
73662;BMP280;61956;52.540;13.382;2023-03-21T08:07:10;98533.44;;;9.39
73662;BMP280;61956;52.540;13.382;2023-03-21T08:09:40;98485.84;;;9.40
73662;BMP280;61956;52.540;13.382;2023-03-21T08:12:11;98273.72;;;9.40
73662;BMP280;61956;52.540;13.382;2023-03-21T08:14:40;99262.59;;;9.47
73662;BMP280;61956;52.540;13.382;2023-03-21T08:17:12;99250.19;;;9.49
73662;BMP280;61956;52.540;13.382;2023-03-21T08:19:41;98578.94;;;9.45
73662;BMP280;61956;52.540;13.382;2023-03-21T08:22:10;98923.28;;;9.48
73662;BMP280;61956;52.540;13.382;2023-03-21T08:24:40;98798.06;;;9.50
73662;BMP280;61956;52.540;13.382;2023-03-21T08:27:09;99731.38;;;9.56
73662;BMP280;61956;52.540;13.382;2023-03-21T08:29:38;99884.69;;;9.58
73662;BMP280;61956;52.540;13.382;2023-03-21T08:32:08;100438.91;;;9.63
73662;BMP280;61956;52.540;13.382;2023-03-21T08:34:40;100972.41;;;9.69
73662;BMP280;61956;52.540;13.382;2023-03-21T08:37:09;101542.53;;;9.75
73662;BMP280;61956;52.540;13.382;2023-03-21T08:39:38;100580.81;;;9.73
73662;BMP280;61956;52.540;13.382;2023-03-21T08:42:07;100007.31;;;9.68
73662;BMP280;61956;52.540;13.382;2023-03-21T08:44:36;100382.41;;;9.72
73662;BMP280;61956;52.540;13.382;2023-03-21T08:47:06;100986.88;;;9.77
73662;BMP280;61956;52.540;13.382;2023-03-21T08:49:35;100896.00;;;9.79
73662;BMP280;61956;52.540;13.382;2023-03-21T08:52:12;100266.94;;;9.76
73662;BMP280;61956;52.540;13.382;2023-03-21T08:54:41;100958.53;;;9.82
73662;BMP280;61956;52.540;13.382;2023-03-21T08:57:10;101260.47;;;9.85
73662;BMP280;61956;52.540;13.382;2023-03-21T08:59:39;102531.06;;;9.95
73662;BMP280;61956;52.540;13.382;2023-03-21T09:02:13;102611.94;;;9.99
73662;BMP280;61956;52.540;13.382;2023-03-21T09:04:45;102393.91;;;10.00
73662;BMP280;61956;52.540;13.382;2023-03-21T09:07:17;102119.06;;;10.00
73662;BMP280;61956;52.540;13.382;2023-03-21T09:09:47;101730.41;;;9.99
73662;BMP280;61956;52.540;13.382;2023-03-21T09:12:17;101763.09;;;10.00
73662;BMP280;61956;52.540;13.382;2023-03-21T09:14:47;100804.69;;;9.95
73662;BMP280;61956;52.540;13.382;2023-03-21T09:17:18;101267.38;;;9.98
73662;BMP280;61956;52.540;13.382;2023-03-21T09:19:49;103773.94;;;10.16
73662;BMP280;61956;52.540;13.382;2023-03-21T09:22:19;104611.31;;;10.27
73662;BMP280;61956;52.540;13.382;2023-03-21T09:24:48;104732.03;;;10.33
73662;BMP280;61956;52.540;13.382;2023-03-21T09:27:18;103776.13;;;10.29
73662;BMP280;61956;52.540;13.382;2023-03-21T09:29:50;102731.06;;;10.23
73662;BMP280;61956;52.540;13.382;2023-03-21T09:32:20;102436.31;;;10.22
73662;BMP280;61956;52.540;13.382;2023-03-21T09:34:52;103077.59;;;10.26
73662;BMP280;61956;52.540;13.382;2023-03-21T09:37:22;103961.66;;;10.35
73662;BMP280;61956;52.540;13.382;2023-03-21T09:39:51;103358.66;;;10.34
73662;BMP280;61956;52.540;13.382;2023-03-21T09:42:32;105341.91;;;10.50
73662;BMP280;61956;52.540;13.382;2023-03-21T09:45:14;105261.94;;;10.54
73662;BMP280;61956;52.540;13.382;2023-03-21T09:47:51;105100.78;;;10.55
73662;BMP280;61956;52.540;13.382;2023-03-21T09:50:29;106400.09;;;10.68
73662;BMP280;61956;52.540;13.382;2023-03-21T09:53:03;105167.66;;;10.64
73662;BMP280;61956;52.540;13.382;2023-03-21T09:55:39;105763.22;;;10.70
73662;BMP280;61956;52.540;13.382;2023-03-21T09:58:18;104512.97;;;10.64
73662;BMP280;61956;52.540;13.382;2023-03-21T10:01:00;104567.38;;;10.66
73662;BMP280;61956;52.540;13.382;2023-03-21T10:03:36;104114.72;;;10.64
73662;BMP280;61956;52.540;13.382;2023-03-21T10:06:13;103564.47;;;10.61
73662;BMP280;61956;52.540;13.382;2023-03-21T10:08:45;103760.72;;;10.63
73662;BMP280;61956;52.540;13.382;2023-03-21T10:11:18;104771.41;;;10.70
73662;BMP280;61956;52.540;13.382;2023-03-21T10:13:54;104821.34;;;10.74
73662;BMP280;61956;52.540;13.382;2023-03-21T10:16:29;104744.91;;;10.76
73662;BMP280;61956;52.540;13.382;2023-03-21T10:19:03;105703.34;;;10.84
73662;BMP280;61956;52.540;13.382;2023-03-21T10:21:43;104853.56;;;10.82
73662;BMP280;61956;52.540;13.382;2023-03-21T10:24:17;107390.09;;;11.04
73662;BMP280;61956;52.540;13.382;2023-03-21T10:26:50;108560.78;;;11.19
73662;BMP280;61956;52.540;13.382;2023-03-21T10:29:23;108119.03;;;11.21
73662;BMP280;61956;52.540;13.382;2023-03-21T10:31:56;108977.09;;;11.33
73662;BMP280;61956;52.540;13.382;2023-03-21T10:34:29;108631.56;;;11.35
73662;BMP280;61956;52.540;13.382;2023-03-21T10:37:04;109392.88;;;11.46
73662;BMP280;61956;52.540;13.382;2023-03-21T10:39:35;110750.75;;;11.63
73662;BMP280;61956;52.540;13.382;2023-03-21T10:42:14;111109.03;;;11.73
73662;BMP280;61956;52.540;13.382;2023-03-21T10:44:49;110546.63;;;11.76
73662;BMP280;61956;52.540;13.382;2023-03-21T10:47:21;110153.75;;;11.80
73662;BMP280;61956;52.540;13.382;2023-03-21T10:49:53;108048.84;;;11.70
73662;BMP280;61956;52.540;13.382;2023-03-21T10:52:27;106717.75;;;11.57
73662;BMP280;61956;52.540;13.382;2023-03-21T10:55:11;106951.91;;;11.60
73662;BMP280;61956;52.540;13.382;2023-03-21T10:57:46;105871.16;;;11.53
73662;BMP280;61956;52.540;13.382;2023-03-21T11:00:19;105826.16;;;11.51
73662;BMP280;61956;52.540;13.382;2023-03-21T11:02:52;107553.25;;;11.65
73662;BMP280;61956;52.540;13.382;2023-03-21T11:05:24;106160.56;;;11.58
73662;BMP280;61956;52.540;13.382;2023-03-21T11:08:06;105974.19;;;11.56
73662;BMP280;61956;52.540;13.382;2023-03-21T11:10:50;107229.34;;;11.67
73662;BMP280;61956;52.540;13.382;2023-03-21T11:13:24;106594.94;;;11.65
73662;BMP280;61956;52.540;13.382;2023-03-21T11:15:57;106855.19;;;11.68
73662;BMP280;61956;52.540;13.382;2023-03-21T11:18:39;107629.22;;;11.76
73662;BMP280;61956;52.540;13.382;2023-03-21T11:21:11;108051.03;;;11.82
73662;BMP280;61956;52.540;13.382;2023-03-21T11:23:47;107390.13;;;11.82
73662;BMP280;61956;52.540;13.382;2023-03-21T11:26:19;106473.63;;;11.76
73662;BMP280;61956;52.540;13.382;2023-03-21T11:28:53;105730.22;;;11.71
73662;BMP280;61956;52.540;13.382;2023-03-21T11:31:36;106261.97;;;11.74
73662;BMP280;61956;52.540;13.382;2023-03-21T11:34:07;105331.28;;;11.69
73662;BMP280;61956;52.540;13.382;2023-03-21T11:36:37;106121.34;;;11.74
73662;BMP280;61956;52.540;13.382;2023-03-21T11:39:30;107502.00;;;11.85
73662;BMP280;61956;52.540;13.382;2023-03-21T11:42:02;108084.47;;;11.94
73662;BMP280;61956;52.540;13.382;2023-03-21T11:44:33;108118.31;;;11.97
73662;BMP280;61956;52.540;13.382;2023-03-21T11:47:10;109492.88;;;12.11
73662;BMP280;61956;52.540;13.382;2023-03-21T11:49:39;109163.28;;;12.16
73662;BMP280;61956;52.540;13.382;2023-03-21T11:52:16;110079.75;;;12.27
73662;BMP280;61956;52.540;13.382;2023-03-21T11:55:04;108671.16;;;12.21
73662;BMP280;61956;52.540;13.382;2023-03-21T11:58:07;107870.75;;;12.18
73662;BMP280;61956;52.540;13.382;2023-03-21T12:00:48;109453.44;;;12.33
73662;BMP280;61956;52.540;13.382;2023-03-21T12:03:38;108750.91;;;12.29
73662;BMP280;61956;52.540;13.382;2023-03-21T12:06:25;109991.78;;;12.44
73662;BMP280;61956;52.540;13.382;2023-03-21T12:09:10;110336.31;;;12.52
73662;BMP280;61956;52.540;13.382;2023-03-21T12:12:08;109548.84;;;12.52
73662;BMP280;61956;52.540;13.382;2023-03-21T12:14:53;109518.38;;;12.53
73662;BMP280;61956;52.540;13.382;2023-03-21T12:17:41;111100.66;;;12.68
73662;BMP280;61956;52.540;13.382;2023-03-21T12:20:45;110544.31;;;12.73
73662;BMP280;61956;52.540;13.382;2023-03-21T12:23:37;110701.94;;;12.79
73662;BMP280;61956;52.540;13.382;2023-03-21T12:26:21;110857.84;;;12.87
73662;BMP280;61956;52.540;13.382;2023-03-21T12:29:22;109904.38;;;12.85
73662;BMP280;61956;52.540;13.382;2023-03-21T12:32:08;108640.03;;;12.75
73662;BMP280;61956;52.540;13.382;2023-03-21T12:35:00;109259.50;;;12.80
73662;BMP280;61956;52.540;13.382;2023-03-21T12:37:56;110715.03;;;12.95
73662;BMP280;61956;52.540;13.382;2023-03-21T12:40:42;112746.75;;;13.19
73662;BMP280;61956;52.540;13.382;2023-03-21T12:43:29;111466.22;;;13.17
73662;BMP280;61956;52.540;13.382;2023-03-21T12:46:10;111130.75;;;13.18
73662;BMP280;61956;52.540;13.382;2023-03-21T12:48:48;110320.47;;;13.18
73662;BMP280;61956;52.540;13.382;2023-03-21T12:51:27;109642.84;;;13.13
73662;BMP280;61956;52.540;13.382;2023-03-21T12:54:03;109792.59;;;13.15
73662;BMP280;61956;52.540;13.382;2023-03-21T12:56:46;110957.34;;;13.26
73662;BMP280;61956;52.540;13.382;2023-03-21T12:59:26;110027.69;;;13.24
73662;BMP280;61956;52.540;13.382;2023-03-21T13:02:21;109029.72;;;13.18
73662;BMP280;61956;52.540;13.382;2023-03-21T13:05:05;108873.84;;;13.17
73662;BMP280;61956;52.540;13.382;2023-03-21T13:07:49;108635.31;;;13.16
73662;BMP280;61956;52.540;13.382;2023-03-21T13:10:24;108561.28;;;13.17
73662;BMP280;61956;52.540;13.382;2023-03-21T13:13:02;108565.63;;;13.17
73662;BMP280;61956;52.540;13.382;2023-03-21T13:15:45;109438.84;;;13.25
73662;BMP280;61956;52.540;13.382;2023-03-21T13:18:32;108800.53;;;13.23
73662;BMP280;61956;52.540;13.382;2023-03-21T13:21:14;108429.66;;;13.21
73662;BMP280;61956;52.540;13.382;2023-03-21T13:23:59;107414.19;;;13.14
73662;BMP280;61956;52.540;13.382;2023-03-21T13:26:36;107080.31;;;13.09
73662;BMP280;61956;52.540;13.382;2023-03-21T13:29:20;106362.22;;;13.02
73662;BMP280;61956;52.540;13.382;2023-03-21T13:31:53;106703.09;;;13.03
73662;BMP280;61956;52.540;13.382;2023-03-21T13:34:26;106759.69;;;13.03
73662;BMP280;61956;52.540;13.382;2023-03-21T13:36:55;105981.72;;;12.96
73662;BMP280;61956;52.540;13.382;2023-03-21T13:39:27;106164.34;;;12.96
73662;BMP280;61956;52.540;13.382;2023-03-21T13:42:02;106053.09;;;12.95
73662;BMP280;61956;52.540;13.382;2023-03-21T13:44:39;105597.00;;;12.91
73662;BMP280;61956;52.540;13.382;2023-03-21T13:47:39;105942.91;;;12.92
73662;BMP280;61956;52.540;13.382;2023-03-21T13:50:27;106328.78;;;12.95
73662;BMP280;61956;52.540;13.382;2023-03-21T13:56:23;107445.91;;;13.06
73662;BMP280;61956;52.540;13.382;2023-03-21T13:58:58;107805.16;;;13.10
73662;BMP280;61956;52.540;13.382;2023-03-21T14:01:34;106931.72;;;13.06
73662;BMP280;61956;52.540;13.382;2023-03-21T14:04:15;107230.03;;;13.08
73662;BMP280;61956;52.540;13.382;2023-03-21T14:06:54;106999.50;;;13.07
73662;BMP280;61956;52.540;13.382;2023-03-21T14:09:28;107146.41;;;13.09
73662;BMP280;61956;52.540;13.382;2023-03-21T14:12:02;106333.38;;;13.04
73662;BMP280;61956;52.540;13.382;2023-03-21T14:14:37;105490.63;;;12.94
73662;BMP280;61956;52.540;13.382;2023-03-21T14:17:12;105063.31;;;12.90
73662;BMP280;61956;52.540;13.382;2023-03-21T14:19:42;104046.66;;;12.80
73662;BMP280;61956;52.540;13.382;2023-03-21T14:22:14;104008.91;;;12.76
73662;BMP280;61956;52.540;13.382;2023-03-21T14:24:47;104080.22;;;12.75
73662;BMP280;61956;52.540;13.382;2023-03-21T14:27:18;104314.94;;;12.73
73662;BMP280;61956;52.540;13.382;2023-03-21T14:29:48;104851.59;;;12.76
73662;BMP280;61956;52.540;13.382;2023-03-21T14:32:22;104418.34;;;12.73
73662;BMP280;61956;52.540;13.382;2023-03-21T14:34:54;105119.97;;;12.78
73662;BMP280;61956;52.540;13.382;2023-03-21T14:37:30;105789.63;;;12.84
73662;BMP280;61956;52.540;13.382;2023-03-21T14:40:05;105914.56;;;12.87
73662;BMP280;61956;52.540;13.382;2023-03-21T14:42:46;106013.59;;;12.89
73662;BMP280;61956;52.540;13.382;2023-03-21T14:45:20;106475.81;;;12.94
73662;BMP280;61956;52.540;13.382;2023-03-21T14:47:57;107362.63;;;13.01
73662;BMP280;61956;52.540;13.382;2023-03-21T14:50:35;107874.69;;;13.11
73662;BMP280;61956;52.540;13.382;2023-03-21T14:53:15;107812.81;;;13.13
73662;BMP280;61956;52.540;13.382;2023-03-21T14:55:52;107528.22;;;13.13
73662;BMP280;61956;52.540;13.382;2023-03-21T14:58:26;107634.28;;;13.16